Time;durP1;ratioP1;P1;durP2;ratioP2;P2;SDS_P1;SDS_P2;PMS_P1;PMS_P2;Temp;Humidity;BMP_temperature;BMP_pressure;BME280_temperature;BME280_humidity;BME280_pressure;Samples;Min_cycle;Max_cycle;Signal;HPM_P1;HPM_P2
2022/06/08 00:01:54;;;;;;;8.65;5.85;;;10.80;99.90;;;;;;5052528;28;20115;-79
2022/06/08 00:04:23;;;;;;;15.02;6.80;;;10.80;99.90;;;;;;5052282;28;20041;-79
2022/06/08 00:06:52;;;;;;;12.98;6.40;;;10.80;99.90;;;;;;5056091;28;20044;-79
2022/06/08 00:09:18;;;;;;;10.77;5.53;;;10.80;99.90;;;;;;5052614;28;20186;-79
2022/06/08 00:11:44;;;;;;;9.88;6.05;;;10.90;99.90;;;;;;5052295;28;20060;-79
2022/06/08 00:14:11;;;;;;;11.52;5.95;;;10.90;99.90;;;;;;5050215;28;20487;-79
2022/06/08 00:16:37;;;;;;;12.60;6.20;;;11.00;99.90;;;;;;5051242;28;20487;-80
2022/06/08 00:19:02;;;;;;;14.48;5.72;;;11.00;99.90;;;;;;5052918;28;20051;-80
2022/06/08 00:21:28;;;;;;;9.07;5.45;;;11.10;99.90;;;;;;5050309;28;20498;-79
2022/06/08 00:23:55;;;;;;;10.10;6.15;;;11.10;99.90;;;;;;5037274;28;20096;-79
2022/06/08 00:26:21;;;;;;;11.18;6.45;;;11.20;99.90;;;;;;5050836;28;20611;-79
2022/06/08 00:28:47;;;;;;;17.30;5.95;;;11.20;99.90;;;;;;5051005;28;20059;-80
2022/06/08 00:31:13;;;;;;;14.15;6.68;;;11.20;99.90;;;;;;5034015;28;20487;-79
2022/06/08 00:33:39;;;;;;;8.85;5.32;;;11.20;99.90;;;;;;5037033;28;20048;-79
2022/06/08 00:36:04;;;;;;;11.13;6.50;;;11.30;99.90;;;;;;5034099;28;20676;-79
2022/06/08 00:38:30;;;;;;;15.50;6.68;;;11.40;99.90;;;;;;5054464;28;20407;-79
2022/06/08 00:41:05;;;;;;;12.65;6.50;;;11.40;99.90;;;;;;5050070;28;20124;-79
2022/06/08 00:43:31;;;;;;;11.77;6.45;;;11.40;99.90;;;;;;5035163;28;20491;-79
2022/06/08 00:45:57;;;;;;;11.80;6.00;;;11.50;99.90;;;;;;5037720;28;20052;-79
2022/06/08 00:48:26;;;;;;;10.55;6.28;;;11.50;99.90;;;;;;5033921;28;20044;-79
2022/06/08 00:50:54;;;;;;;11.38;5.72;;;11.50;99.90;;;;;;5036448;28;20041;-80
2022/06/08 00:53:27;;;;;;;15.32;6.38;;;11.50;99.90;;;;;;5036588;28;20127;-79
2022/06/08 00:55:54;;;;;;;10.45;6.00;;;11.50;99.90;;;;;;5033626;28;20051;-79
2022/06/08 00:58:25;;;;;;;8.40;5.32;;;11.50;99.90;;;;;;5056174;28;20041;-80
2022/06/08 01:00:52;;;;;;;8.35;5.43;;;11.50;99.90;;;;;;5033585;28;20032;-79
2022/06/08 01:03:18;;;;;;;12.65;6.18;;;11.50;99.90;;;;;;5052649;28;20524;-81
2022/06/08 01:05:55;;;;;;;10.55;6.93;;;11.50;99.90;;;;;;5033551;28;20112;-80
2022/06/08 01:08:29;;;;;;;14.88;7.22;;;11.40;99.90;;;;;;5050194;28;20044;-79
2022/06/08 01:10:57;;;;;;;13.57;7.05;;;11.40;99.90;;;;;;5032754;28;20037;-79
2022/06/08 01:13:23;;;;;;;11.07;6.55;;;11.40;99.90;;;;;;5052301;28;20040;-79
2022/06/08 01:15:50;;;;;;;13.85;6.97;;;11.50;99.90;;;;;;5049997;28;20040;-79
2022/06/08 01:18:15;;;;;;;9.75;6.68;;;11.50;99.90;;;;;;5049805;28;20789;-79
2022/06/08 01:20:52;;;;;;;11.55;6.38;;;11.50;99.90;;;;;;5049043;28;20033;-79
2022/06/08 01:23:18;;;;;;;11.10;6.25;;;11.60;99.90;;;;;;5052634;28;20040;-79
2022/06/08 01:25:58;;;;;;;11.57;6.50;;;11.60;99.90;;;;;;5033164;28;20043;-79
2022/06/08 01:28:50;;;;;;;12.60;6.78;;;11.70;99.90;;;;;;5051303;28;20041;-79
2022/06/08 01:31:34;;;;;;;12.10;6.70;;;11.70;99.90;;;;;;5050888;28;20037;-79
2022/06/08 01:34:18;;;;;;;13.95;8.10;;;11.70;99.90;;;;;;5050957;28;20083;-79
2022/06/08 01:37:02;;;;;;;13.98;7.30;;;11.80;99.90;;;;;;5046442;28;20514;-79
2022/06/08 01:39:53;;;;;;;19.33;8.38;;;11.80;99.90;;;;;;5050949;28;20068;-79
2022/06/08 01:42:27;;;;;;;14.23;8.35;;;11.80;99.90;;;;;;5049537;28;20128;-80
2022/06/08 01:48:04;;;;;;;21.13;10.10;;;11.90;99.90;;;;;;5029685;28;20057;-79
2022/06/08 01:50:47;;;;;;;19.52;10.38;;;12.00;99.90;;;;;;5029613;28;20061;-80
2022/06/08 01:53:30;;;;;;;19.13;10.10;;;12.00;99.90;;;;;;5055675;28;20064;-80
2022/06/08 01:56:02;;;;;;;15.10;9.45;;;12.10;99.90;;;;;;5053408;28;20111;-79
2022/06/08 01:58:34;;;;;;;21.85;10.15;;;12.20;99.90;;;;;;5053043;28;20079;-79
2022/06/08 02:01:09;;;;;;;21.75;10.38;;;12.10;99.90;;;;;;5060051;28;20044;-79
2022/06/08 02:03:50;;;;;;;21.00;10.32;;;12.20;99.90;;;;;;5047339;28;20651;-79
2022/06/08 02:06:29;;;;;;;17.48;10.23;;;12.20;99.90;;;;;;5036761;28;20040;-79
2022/06/08 02:09:11;;;;;;;18.25;10.05;;;12.20;99.90;;;;;;5053515;28;20095;-79
2022/06/08 02:11:47;;;;;;;16.85;9.18;;;12.30;99.90;;;;;;5045702;28;20048;-79
2022/06/08 02:14:18;;;;;;;17.38;9.85;;;12.30;99.90;;;;;;5056582;28;20037;-79
2022/06/08 02:16:58;;;;;;;18.42;10.65;;;12.30;99.90;;;;;;5055198;28;20041;-79
2022/06/08 02:19:48;;;;;;;16.70;10.73;;;12.30;99.90;;;;;;5055226;28;20083;-80
2022/06/08 02:22:19;;;;;;;18.65;9.52;;;12.40;99.90;;;;;;5054297;28;20041;-79
2022/06/08 02:25:01;;;;;;;19.92;11.23;;;12.40;99.90;;;;;;5054719;28;20124;-79
2022/06/08 02:27:40;;;;;;;;;;;12.40;99.90;;;;;;5072021;28;20092;-79
2022/06/08 02:30:23;;;;;;;18.77;9.45;;;12.40;99.90;;;;;;5065966;28;19955;-80
2022/06/08 02:35:59;;;;;;;19.17;10.48;;;12.40;99.90;;;;;;5049003;28;20047;-80
2022/06/08 02:38:46;;;;;;;17.13;9.68;;;12.40;99.90;;;;;;5052682;28;20140;-80
2022/06/08 02:41:13;;;;;;;18.65;9.60;;;12.40;99.90;;;;;;5053944;28;20053;-79
2022/06/08 02:43:49;;;;;;;16.90;9.57;;;12.40;99.90;;;;;;5055482;28;20088;-79
2022/06/08 02:46:25;;;;;;;16.65;10.52;;;12.50;99.90;;;;;;5053195;28;20041;-79
2022/06/08 02:48:51;;;;;;;21.05;10.95;;;12.50;99.90;;;;;;5066210;28;20037;-80
2022/06/08 02:51:27;;;;;;;18.35;9.93;;;12.50;99.90;;;;;;5075879;28;20120;-80
2022/06/08 02:53:57;;;;;;;19.90;10.32;;;12.50;99.90;;;;;;5067218;28;20041;-81
2022/06/08 02:56:51;;;;;;;19.52;10.43;;;12.50;99.90;;;;;;5053725;28;20077;-79
2022/06/08 02:59:36;;;;;;;19.00;10.02;;;12.50;99.90;;;;;;5052441;28;20053;-79
2022/06/08 03:02:17;;;;;;;24.58;11.00;;;12.50;99.90;;;;;;5058361;28;20037;-80
2022/06/08 03:05:16;;;;;;;19.45;10.65;;;12.50;99.90;;;;;;5047115;28;20503;-79
2022/06/08 03:08:00;;;;;;;22.35;9.93;;;12.50;99.90;;;;;;5050705;28;20053;-79
2022/06/08 03:10:32;;;;;;;18.08;10.45;;;12.50;99.90;;;;;;5051259;28;20076;-79
2022/06/08 03:13:07;;;;;;;17.35;10.57;;;12.60;99.90;;;;;;5054938;28;20048;-80
2022/06/08 03:15:34;;;;;;;20.08;10.35;;;12.50;99.90;;;;;;5034880;28;20037;-79
2022/06/08 03:18:01;;;;;;;17.85;10.25;;;12.50;99.90;;;;;;5050031;28;20041;-80
2022/06/08 03:20:27;;;;;;;17.20;10.88;;;12.70;99.90;;;;;;5036706;28;20395;-79
2022/06/08 03:22:54;;;;;;;19.63;11.77;;;12.60;99.90;;;;;;5052931;28;20036;-80
2022/06/08 03:25:20;;;;;;;21.30;10.82;;;12.60;99.90;;;;;;5036764;28;20391;-79
2022/06/08 03:27:46;;;;;;;18.98;11.02;;;12.60;99.90;;;;;;5054897;28;20107;-80
2022/06/08 03:30:14;;;;;;;16.63;10.45;;;12.60;99.90;;;;;;5052363;28;20069;-80
2022/06/08 03:32:39;;;;;;;22.35;11.45;;;12.60;99.90;;;;;;5052731;28;20044;-79
2022/06/08 03:35:06;;;;;;;18.70;11.50;;;12.70;99.90;;;;;;5054600;28;20040;-80
2022/06/08 03:37:31;;;;;;;21.98;11.32;;;12.70;99.90;;;;;;5053220;28;20090;-80
2022/06/08 03:39:57;;;;;;;17.35;10.73;;;12.80;99.90;;;;;;5052654;28;20037;-81
2022/06/08 03:42:22;;;;;;;20.05;11.57;;;12.80;99.90;;;;;;5053109;28;20041;-80
2022/06/08 03:44:48;;;;;;;19.48;11.00;;;12.80;99.90;;;;;;5053296;28;20048;-81
2022/06/08 03:47:21;;;;;;;21.90;12.02;;;12.80;99.90;;;;;;5054355;28;20033;-80
2022/06/08 03:49:48;;;;;;;24.45;12.27;;;12.90;99.90;;;;;;5051604;28;20036;-79
2022/06/08 03:52:24;;;;;;;24.30;12.02;;;12.90;99.90;;;;;;5054116;28;20491;-80
2022/06/08 03:54:55;;;;;;;22.55;13.10;;;12.90;99.90;;;;;;5036460;28;20044;-80
2022/06/08 03:57:21;;;;;;;21.60;12.68;;;12.90;99.90;;;;;;5035986;28;20070;-80
2022/06/08 03:59:49;;;;;;;26.75;13.77;;;12.90;99.90;;;;;;5060077;28;20539;-82
2022/06/08 04:02:15;;;;;;;21.55;12.13;;;13.00;99.90;;;;;;5053082;28;20128;-81
2022/06/08 04:04:41;;;;;;;23.42;13.27;;;13.00;99.90;;;;;;5052229;28;20099;-80
2022/06/08 04:07:07;;;;;;;24.90;13.40;;;13.00;99.90;;;;;;5062400;28;20064;-81
2022/06/08 04:09:33;;;;;;;24.17;12.38;;;13.10;99.90;;;;;;5051420;28;20029;-80
2022/06/08 04:11:59;;;;;;;23.20;11.48;;;13.00;99.90;;;;;;5053434;28;20414;-81
2022/06/08 04:14:25;;;;;;;22.08;13.25;;;13.10;99.90;;;;;;5052999;28;20091;-82
2022/06/08 04:16:51;;;;;;;23.63;13.52;;;13.10;99.90;;;;;;5051887;28;20087;-82
2022/06/08 04:19:17;;;;;;;24.27;13.13;;;13.10;99.90;;;;;;5058421;28;20048;-81
2022/06/08 04:21:43;;;;;;;26.70;14.30;;;13.20;99.90;;;;;;5052079;28;20064;-79
2022/06/08 04:24:12;;;;;;;29.55;14.20;;;13.20;99.90;;;;;;5053250;28;20079;-79
2022/06/08 04:26:38;;;;;;;26.83;13.93;;;13.20;99.90;;;;;;5053451;28;20033;-79
2022/06/08 04:29:04;;;;;;;25.52;13.50;;;13.30;99.90;;;;;;5058631;28;20058;-78
2022/06/08 04:31:33;;;;;;;23.65;12.77;;;13.30;99.90;;;;;;5050542;28;20036;-79
2022/06/08 04:33:59;;;;;;;25.92;13.75;;;13.40;99.90;;;;;;5052845;28;20033;-79
2022/06/08 04:36:25;;;;;;;26.95;14.02;;;13.50;99.90;;;;;;5034945;28;20076;-79
2022/06/08 04:38:50;;;;;;;22.65;14.20;;;13.50;99.90;;;;;;5055436;28;20059;-79
2022/06/08 04:41:16;;;;;;;25.55;13.63;;;13.60;99.90;;;;;;5053608;28;20033;-78
2022/06/08 04:43:42;;;;;;;26.15;14.65;;;13.60;99.90;;;;;;5051238;28;20045;-78
2022/06/08 04:46:08;;;;;;;28.27;14.77;;;13.60;99.90;;;;;;5054644;28;20040;-79
2022/06/08 04:48:33;;;;;;;32.03;14.75;;;13.60;99.90;;;;;;5065623;28;20048;-80
2022/06/08 04:50:59;;;;;;;23.80;14.77;;;13.70;99.90;;;;;;5053751;28;20037;-79
2022/06/08 04:53:25;;;;;;;30.10;14.02;;;13.70;99.90;;;;;;5053475;28;20049;-79
2022/06/08 04:55:51;;;;;;;24.63;14.70;;;13.70;99.90;;;;;;5053043;28;20029;-79
2022/06/08 04:58:17;;;;;;;25.38;14.77;;;13.80;99.90;;;;;;5051956;28;20116;-81
2022/06/08 05:00:43;;;;;;;23.40;13.00;;;13.90;99.90;;;;;;5034247;28;20506;-80
2022/06/08 05:03:09;;;;;;;23.52;14.38;;;14.00;99.90;;;;;;5051856;28;20503;-81
2022/06/08 05:05:37;;;;;;;21.92;13.65;;;14.10;99.90;;;;;;5051694;28;20079;-83
2022/06/08 05:08:05;;;;;;;24.08;14.07;;;14.10;99.90;;;;;;5053265;28;20591;-83
2022/06/08 05:10:32;;;;;;;24.33;14.05;;;14.20;99.90;;;;;;5055554;28;20519;-83
2022/06/08 05:16:21;;;;;;;21.70;13.57;;;14.40;99.90;;;;;;5029530;28;20053;-83
2022/06/08 05:18:46;;;;;;;24.98;14.60;;;14.40;99.90;;;;;;5030476;28;20461;-83
2022/06/08 05:21:12;;;;;;;24.58;13.60;;;14.50;99.90;;;;;;5030194;28;20034;-83
2022/06/08 05:23:39;;;;;;;27.70;14.80;;;14.50;99.90;;;;;;5033526;28;20045;-83
2022/06/08 05:26:06;;;;;;;25.88;14.07;;;14.60;99.90;;;;;;5034766;28;20488;-83
2022/06/08 05:28:31;;;;;;;30.92;17.38;;;14.70;99.90;;;;;;5030881;28;20041;-83
2022/06/08 05:30:57;;;;;;;23.23;13.65;;;14.80;99.90;;;;;;5030414;28;20124;-83
2022/06/08 05:33:24;;;;;;;23.55;13.82;;;14.80;99.90;;;;;;5029913;28;20068;-83
2022/06/08 05:35:50;;;;;;;20.60;12.18;;;14.90;99.90;;;;;;5014303;28;20076;-83
2022/06/08 05:38:16;;;;;;;24.00;14.73;;;15.00;99.90;;;;;;5030435;28;20045;-83
2022/06/08 05:40:42;;;;;;;24.00;12.63;;;15.20;99.90;;;;;;5014219;28;20064;-81
2022/06/08 05:43:12;;;;;;;21.40;12.88;;;15.30;99.90;;;;;;5030390;28;20575;-82
2022/06/08 05:45:39;;;;;;;25.02;13.50;;;15.30;99.90;;;;;;5030971;28;20104;-81
2022/06/08 05:48:06;;;;;;;20.25;13.32;;;15.40;99.90;;;;;;5031256;28;20030;-81
2022/06/08 05:50:32;;;;;;;20.83;12.75;;;15.40;99.90;;;;;;5030313;28;20041;-81
2022/06/08 05:52:57;;;;;;;23.13;12.60;;;15.40;99.90;;;;;;5029459;28;20111;-81
2022/06/08 05:55:24;;;;;;;21.52;12.38;;;15.50;99.90;;;;;;5039352;28;20492;-82
2022/06/08 05:57:51;;;;;;;19.02;12.57;;;15.50;99.90;;;;;;5035480;28;20037;-81
2022/06/08 06:00:20;;;;;;;27.88;14.30;;;15.60;99.90;;;;;;5047169;28;20041;-81
2022/06/08 06:02:46;;;;;;;21.33;11.95;;;15.70;99.90;;;;;;5040661;28;20040;-81
2022/06/08 06:05:14;;;;;;;27.88;13.20;;;16.00;99.90;;;;;;5031159;28;20030;-81
2022/06/08 06:07:41;;;;;;;20.90;11.95;;;16.40;99.90;;;;;;5033234;28;20108;-82
2022/06/08 06:10:07;;;;;;;21.65;13.63;;;16.80;99.90;;;;;;5040965;28;20049;-82
2022/06/08 06:12:34;;;;;;;19.45;12.63;;;17.20;99.90;;;;;;5030046;28;20065;-83
2022/06/08 06:15:00;;;;;;;17.02;11.48;;;17.70;99.90;;;;;;5011982;28;20037;-82
2022/06/08 06:17:27;;;;;;;18.25;12.13;;;18.40;99.90;;;;;;5029540;28;20049;-82
2022/06/08 06:19:52;;;;;;;17.88;12.15;;;19.00;99.90;;;;;;5029494;28;20183;-82
2022/06/08 06:22:18;;;;;;;17.50;11.07;;;19.60;99.90;;;;;;5029715;28;20124;-82
2022/06/08 06:24:44;;;;;;;14.93;9.93;;;20.30;99.90;;;;;;5028790;28;20130;-83
2022/06/08 06:27:09;;;;;;;15.15;9.65;;;20.70;99.90;;;;;;5038089;28;20054;-83
2022/06/08 06:29:35;;;;;;;14.68;8.63;;;21.10;99.90;;;;;;5030096;28;20508;-83
2022/06/08 06:32:07;;;;;;;12.25;8.68;;;21.40;99.90;;;;;;5043243;28;20051;-83
2022/06/08 06:34:33;;;;;;;12.20;8.07;;;21.70;99.90;;;;;;5009896;28;20539;-82
2022/06/08 06:36:59;;;;;;;10.30;7.57;;;21.90;99.90;;;;;;5018550;28;20098;-82
2022/06/08 06:39:26;;;;;;;10.15;7.60;;;22.00;99.90;;;;;;5035423;28;20050;-83
2022/06/08 06:41:53;;;;;;;10.77;7.03;;;22.10;99.90;;;;;;5036014;28;20081;-82
2022/06/08 06:44:19;;;;;;;10.80;7.47;;;22.20;99.90;;;;;;5032824;28;20064;-83
2022/06/08 06:46:44;;;;;;;9.82;6.68;;;22.30;99.90;;;;;;5046855;28;20534;-84
2022/06/08 06:49:11;;;;;;;7.32;5.75;;;22.20;99.90;;;;;;5053466;28;20045;-83
2022/06/08 06:51:37;;;;;;;8.50;6.00;;;22.00;99.90;;;;;;5053052;28;20044;-84
2022/06/08 06:54:05;;;;;;;9.07;6.90;;;21.60;99.90;;;;;;5056562;22;20048;-83
2022/06/08 06:56:40;;;;;;;10.82;7.15;;;21.40;99.90;;;;;;5014633;28;20408;-83
2022/06/08 06:59:08;;;;;;;8.02;5.70;;;21.10;99.90;;;;;;5032842;28;20040;-83
2022/06/08 07:01:41;;;;;;;12.23;5.80;;;20.80;99.90;;;;;;5052717;28;20526;-83
2022/06/08 07:04:06;;;;;;;7.07;5.20;;;20.60;99.90;;;;;;5043454;28;20037;-83
2022/06/08 07:06:32;;;;;;;7.93;5.53;;;20.60;99.90;;;;;;5032682;28;20176;-83
2022/06/08 07:09:14;;;;;;;9.48;4.95;;;20.50;99.90;;;;;;5032973;28;20041;-83
2022/06/08 07:11:50;;;;;;;11.07;5.70;;;20.50;99.90;;;;;;5033149;28;20381;-84
2022/06/08 07:14:29;;;;;;;7.82;5.60;;;20.60;99.90;;;;;;5031984;28;20484;-83
2022/06/08 07:16:57;;;;;;;9.30;5.72;;;20.80;99.90;;;;;;5033218;28;20057;-83
2022/06/08 07:19:25;;;;;;;6.18;4.80;;;20.80;99.90;;;;;;5032865;28;20133;-84
2022/06/08 07:21:51;;;;;;;6.90;4.97;;;20.90;99.90;;;;;;5032302;28;20050;-83
2022/06/08 07:24:34;;;;;;;8.02;4.63;;;21.10;99.90;;;;;;5048666;28;20048;-83
2022/06/08 07:27:03;;;;;;;6.95;3.95;;;21.30;99.90;;;;;;5032653;28;20041;-84
2022/06/08 07:29:33;;;;;;;6.45;3.92;;;21.30;99.90;;;;;;5048902;28;20044;-83
2022/06/08 07:31:59;;;;;;;6.20;4.28;;;21.40;99.90;;;;;;5031330;28;20033;-84
2022/06/08 07:34:25;;;;;;;6.43;3.55;;;21.50;99.90;;;;;;5032636;28;20090;-83
2022/06/08 07:36:50;;;;;;;8.23;3.53;;;21.70;99.90;;;;;;5031880;28;20045;-83
2022/06/08 07:39:17;;;;;;;4.93;3.08;;;21.80;99.90;;;;;;5032458;28;20044;-83
2022/06/08 07:41:46;;;;;;;9.63;3.72;;;22.00;99.90;;;;;;5031888;28;20045;-83
2022/06/08 07:44:14;;;;;;;3.72;2.90;;;22.00;99.90;;;;;;5032139;28;20092;-83
2022/06/08 07:46:44;;;;;;;5.45;3.15;;;22.00;99.90;;;;;;5032719;28;20407;-83
2022/06/08 07:51:56;;;;;;;4.72;2.90;;;22.20;99.90;;;;;;5029077;28;20499;-83
2022/06/08 07:54:25;;;;;;;7.43;3.55;;;22.40;99.90;;;;;;5019215;28;20072;-84
2022/06/08 07:56:53;;;;;;;5.40;3.58;;;22.60;99.90;;;;;;5031034;28;20041;-85
2022/06/08 07:59:22;;;;;;;9.73;4.20;;;22.80;99.90;;;;;;5030430;28;20530;-85
2022/06/08 08:01:47;;;;;;;5.78;3.20;;;22.90;99.90;;;;;;5037837;28;20060;-84
2022/06/08 08:04:13;;;;;;;5.38;3.22;;;23.00;99.90;;;;;;5031723;28;20041;-84
2022/06/08 08:06:39;;;;;;;6.85;2.78;;;23.00;99.90;;;;;;5030981;28;20033;-84
2022/06/08 08:09:05;;;;;;;6.88;3.55;;;23.20;99.90;;;;;;5021343;28;20038;-85
2022/06/08 08:11:30;;;;;;;4.03;2.72;;;23.30;99.90;;;;;;5031167;28;20048;-85
2022/06/08 08:13:56;;;;;;;4.80;3.03;;;23.30;99.90;;;;;;5035513;28;20098;-84
2022/06/08 08:16:22;;;;;;;4.00;2.50;;;23.40;99.90;;;;;;5032393;28;20492;-85
2022/06/08 08:18:48;;;;;;;5.47;2.50;;;23.50;99.90;;;;;;5029654;28;20038;-84
2022/06/08 08:21:14;;;;;;;4.43;2.78;;;23.50;99.90;;;;;;5030953;28;20045;-84
2022/06/08 08:23:39;;;;;;;3.95;2.65;;;23.60;99.90;;;;;;5031376;28;20041;-84
2022/06/08 08:26:05;;;;;;;3.53;2.50;;;23.80;99.90;;;;;;5031312;28;20722;-84
2022/06/08 08:28:30;;;;;;;2.95;2.35;;;24.00;99.90;;;;;;5031318;28;20033;-83
2022/06/08 08:30:56;;;;;;;14.63;4.03;;;24.20;99.90;;;;;;5030776;28;20037;-84
2022/06/08 08:33:22;;;;;;;3.92;2.22;;;24.20;99.90;;;;;;5031015;28;20050;-84
2022/06/08 08:35:47;;;;;;;5.70;2.00;;;24.00;99.90;;;;;;5031178;28;20124;-83
2022/06/08 08:38:13;;;;;;;2.97;1.27;;;23.60;99.90;;;;;;5031040;28;20048;-79
2022/06/08 08:40:43;;;;;;;4.07;2.45;;;23.20;99.90;;;;;;5032637;28;20036;-79
2022/06/08 08:43:13;;;;;;;6.25;4.13;;;22.90;99.90;;;;;;5031616;28;20103;-81
2022/06/08 08:45:50;;;;;;;6.60;4.40;;;22.70;99.90;;;;;;5015401;28;20060;-80
2022/06/08 08:48:28;;;;;;;8.43;3.55;;;22.70;99.90;;;;;;5031009;28;20041;-80
2022/06/08 08:51:31;;;;;;;9.82;4.72;;;22.60;99.90;;;;;;5014220;28;20041;-80
2022/06/08 08:54:26;;;;;;;5.63;4.00;;;22.70;99.90;;;;;;5014299;28;20469;-79
2022/06/08 08:57:00;;;;;;;5.38;3.38;;;22.90;99.90;;;;;;5014595;28;20086;-81
2022/06/08 08:59:30;;;;;;;5.22;2.90;;;23.10;99.90;;;;;;5014553;28;20404;-78
2022/06/08 09:01:58;;;;;;;3.85;2.88;;;23.10;99.90;;;;;;5014348;28;20049;-81
2022/06/08 09:04:33;;;;;;;5.50;2.63;;;23.00;99.90;;;;;;5014334;28;20044;-79
2022/06/08 09:07:12;;;;;;;4.35;2.67;;;22.80;99.90;;;;;;5031764;28;20045;-80
2022/06/08 09:09:38;;;;;;;3.38;2.55;;;22.50;99.90;;;;;;5014416;28;20044;-79
2022/06/08 09:12:04;;;;;;;4.43;2.47;;;22.20;99.90;;;;;;5031224;28;20510;-80
2022/06/08 09:14:50;;;;;;;3.55;1.90;;;22.00;99.90;;;;;;5030504;28;20077;-80
2022/06/08 09:17:19;;;;;;;2.95;2.35;;;22.00;99.90;;;;;;5014666;28;20497;-80
2022/06/08 09:19:50;;;;;;;3.47;2.60;;;22.00;99.90;;;;;;5014564;28;20550;-81
2022/06/08 09:22:23;;;;;;;2.60;2.10;;;21.90;99.90;;;;;;5031268;28;20037;-81
2022/06/08 09:24:58;;;;;;;5.57;2.35;;;21.80;99.90;;;;;;5031960;28;20038;-81
2022/06/08 09:27:33;;;;;;;3.92;2.47;;;21.80;99.90;;;;;;5013754;28;20192;-81
2022/06/08 09:30:08;;;;;;;2.88;2.40;;;21.70;99.90;;;;;;5013815;28;20045;-81
2022/06/08 09:32:53;;;;;;;6.20;3.25;;;21.70;99.90;;;;;;5014367;28;20403;-81
2022/06/08 09:35:35;;;;;;;5.03;2.63;;;21.80;99.90;;;;;;5031802;28;20045;-80
2022/06/08 09:38:08;;;;;;;5.85;2.92;;;21.90;99.90;;;;;;5032203;28;20046;-80
2022/06/08 09:40:37;;;;;;;4.93;2.67;;;22.10;99.90;;;;;;5030193;28;20045;-81
2022/06/08 09:43:15;;;;;;;4.32;2.80;;;22.20;99.90;;;;;;5030433;28;20049;-81
2022/06/08 09:45:49;;;;;;;4.28;2.78;;;22.60;99.90;;;;;;5030681;28;20045;-78
2022/06/08 09:51:26;;;;;;;5.15;2.83;;;23.30;99.90;;;;;;5029654;28;20049;-79
2022/06/08 09:54:01;;;;;;;5.40;2.50;;;23.40;99.90;;;;;;5013107;28;20045;-79
2022/06/08 09:56:50;;;;;;;4.18;2.92;;;23.50;99.90;;;;;;5029785;28;20064;-79
2022/06/08 09:59:25;;;;;;;5.60;3.28;;;23.30;99.90;;;;;;5013351;28;20045;-79
2022/06/08 10:01:58;;;;;;;4.90;3.05;;;23.00;99.90;;;;;;5029247;28;20049;-79
2022/06/08 10:04:45;;;;;;;4.75;3.40;;;22.60;99.90;;;;;;5029896;28;20152;-82
2022/06/08 10:07:42;;;;;;;6.22;3.45;;;22.50;99.90;;;;;;5030403;28;20046;-83
2022/06/08 10:10:32;;;;;;;4.90;2.83;;;22.50;99.90;;;;;;5016686;28;20053;-84
2022/06/08 10:13:01;;;;;;;8.60;3.38;;;22.70;99.90;;;;;;5029849;28;20045;-83
2022/06/08 10:15:52;;;;;;;5.22;2.97;;;22.70;99.90;;;;;;5030630;28;20041;-83
2022/06/08 10:18:36;;;;;;;5.30;3.20;;;22.70;99.90;;;;;;5031536;28;20423;-84
2022/06/08 10:21:13;;;;;;;4.57;3.45;;;22.70;99.90;;;;;;5017665;28;20057;-83
2022/06/08 10:23:57;;;;;;;8.88;3.70;;;22.80;99.90;;;;;;5034754;28;20041;-83
2022/06/08 10:26:36;;;;;;;5.70;3.75;;;23.00;99.90;;;;;;5017410;28;20045;-83
2022/06/08 10:29:09;;;;;;;5.18;3.35;;;23.40;99.90;;;;;;5035246;28;20045;-83
2022/06/08 10:31:56;;;;;;;6.55;3.08;;;23.60;99.90;;;;;;5034177;28;20075;-84
2022/06/08 10:34:23;;;;;;;6.60;2.65;;;23.90;99.90;;;;;;5034289;28;20474;-83
2022/06/08 10:36:53;;;;;;;6.03;3.00;;;24.00;99.90;;;;;;5018651;28;20041;-82
2022/06/08 10:39:19;;;;;;;12.55;3.05;;;24.10;99.90;;;;;;5034387;28;20045;-84
2022/06/08 10:44:51;;;;;;;7.90;3.20;;;24.20;99.90;;;;;;5035024;28;20566;-83
2022/06/08 10:47:37;;;;;;;4.82;3.30;;;24.30;99.90;;;;;;5017863;28;20128;-83
2022/06/08 10:50:05;;;;;;;6.93;3.40;;;24.20;99.90;;;;;;5032545;28;20630;-84
2022/06/08 10:52:40;;;;;;;4.97;2.53;;;24.00;99.90;;;;;;5024862;28;20043;-84
2022/06/08 10:55:17;;;;;;;4.10;3.03;;;23.90;99.90;;;;;;5031894;28;20045;-84
2022/06/08 10:57:43;;;;;;;6.57;3.30;;;23.80;99.90;;;;;;5033329;28;20047;-84
2022/06/08 11:00:21;;;;;;;4.60;2.58;;;23.80;99.90;;;;;;5015895;28;20072;-85
2022/06/08 11:02:53;;;;;;;4.10;2.80;;;23.60;99.90;;;;;;5032236;28;20095;-82
2022/06/08 11:05:41;;;;;;;4.70;2.80;;;23.40;99.90;;;;;;5015418;28;20040;-84
2022/06/08 11:08:07;;;;;;;5.30;2.67;;;23.30;99.90;;;;;;5031478;28;20045;-83
2022/06/08 11:10:44;;;;;;;4.25;2.53;;;23.00;99.90;;;;;;5029880;28;20120;-83
2022/06/08 11:13:26;;;;;;;5.40;2.97;;;22.90;99.90;;;;;;5015169;28;20092;-84
2022/06/08 11:15:52;;;;;;;4.25;2.88;;;22.80;99.90;;;;;;5012415;28;20455;-83
2022/06/08 11:18:26;;;;;;;8.40;2.40;;;22.80;99.90;;;;;;4996028;28;20041;-83
2022/06/08 11:21:14;;;;;;;6.55;2.00;;;22.70;99.90;;;;;;5007413;28;20072;-82
2022/06/08 11:23:51;;;;;;;2.55;1.70;;;22.50;99.90;;;;;;5049022;28;20088;-80
2022/06/08 11:26:21;;;;;;;4.63;2.20;;;22.30;99.90;;;;;;5055361;28;20041;-83
2022/06/08 11:28:50;;;;;;;4.78;1.67;;;22.20;99.90;;;;;;5054963;28;20068;-80
2022/06/08 11:31:25;;;;;;;3.58;1.98;;;22.10;99.90;;;;;;5037628;28;20032;-83
2022/06/08 11:34:03;;;;;;;5.07;1.58;;;22.00;99.90;;;;;;5034167;28;20041;-81
2022/06/08 11:36:54;;;;;;;5.25;1.10;;;21.70;99.90;;;;;;5023262;28;20037;-82
2022/06/08 11:39:29;;;;;;;3.25;1.20;;;21.30;99.90;;;;;;5015335;28;20037;-81
2022/06/08 11:42:08;;;;;;;4.63;1.15;;;20.80;99.90;;;;;;5015361;28;20046;-83
2022/06/08 11:44:35;;;;;;;6.72;1.10;;;20.30;99.90;;;;;;5028488;28;20044;-83
2022/06/08 11:47:10;;;;;;;6.20;1.00;;;20.00;99.90;;;;;;5011331;28;20138;-83
2022/06/08 11:49:43;;;;;;;4.00;1.08;;;19.80;99.90;;;;;;5040623;28;20041;-79
2022/06/08 11:52:23;;;;;;;5.82;1.30;;;19.60;99.90;;;;;;5030371;28;20033;-82
2022/06/08 11:55:03;;;;;;;2.85;1.27;;;19.30;99.90;;;;;;5032160;28;20186;-83
2022/06/08 11:57:30;;;;;;;5.30;1.55;;;19.10;99.90;;;;;;5016043;28;20067;-84
2022/06/08 11:59:59;;;;;;;5.03;1.48;;;19.00;99.90;;;;;;5031677;28;20056;-82
2022/06/08 12:02:33;;;;;;;4.38;1.60;;;18.90;99.90;;;;;;5015300;28;20097;-83
2022/06/08 12:04:59;;;;;;;8.70;2.10;;;18.80;99.90;;;;;;5013320;28;20761;-83
2022/06/08 12:07:41;;;;;;;6.60;1.83;;;18.50;99.90;;;;;;5019724;28;20060;-83
2022/06/08 12:10:12;;;;;;;4.88;1.98;;;18.30;99.90;;;;;;5003943;28;20444;-83
2022/06/08 12:12:38;;;;;;;6.78;1.80;;;18.00;99.90;;;;;;5032637;28;20097;-83
2022/06/08 12:15:30;;;;;;;4.13;1.83;;;17.80;99.90;;;;;;5032165;28;20087;-82
2022/06/08 12:18:08;;;;;;;5.00;1.45;;;17.70;99.90;;;;;;5000460;28;20053;-82
2022/06/08 12:20:40;;;;;;;5.05;1.55;;;17.60;99.90;;;;;;5019744;28;20426;-83
2022/06/08 12:23:06;;;;;;;5.30;1.73;;;17.50;99.90;;;;;;5014722;28;20095;-82
2022/06/08 12:25:32;;;;;;;6.18;1.48;;;17.50;99.90;;;;;;5018026;28;20041;-82
2022/06/08 12:28:03;;;;;;;5.30;1.85;;;17.40;99.90;;;;;;5039887;28;20033;-81
2022/06/08 12:30:30;;;;;;;4.63;2.10;;;17.30;99.90;;;;;;5016498;28;20038;-82
2022/06/08 12:33:20;;;;;;;8.57;2.65;;;17.30;99.90;;;;;;5016638;28;20045;-81
2022/06/08 12:36:12;;;;;;;8.60;2.15;;;17.20;99.90;;;;;;5034523;28;20059;-82
2022/06/08 12:39:09;;;;;;;5.22;2.40;;;17.30;99.90;;;;;;5026023;28;20500;-82
2022/06/08 12:41:40;;;;;;;9.10;2.08;;;17.30;99.90;;;;;;5030832;28;20492;-82
2022/06/08 12:44:13;;;;;;;5.78;2.50;;;17.40;99.90;;;;;;5036513;28;20053;-82
2022/06/08 12:47:19;;;;;;;5.28;2.38;;;17.40;99.90;;;;;;5037603;28;20083;-82
2022/06/08 12:50:06;;;;;;;8.38;2.95;;;17.40;99.90;;;;;;5004318;28;20041;-83
2022/06/08 12:52:34;;;;;;;5.47;3.30;;;17.40;99.90;;;;;;5012048;28;20041;-82
2022/06/08 12:55:01;;;;;;;9.18;3.83;;;17.50;99.90;;;;;;4994983;28;20400;-82
2022/06/08 12:57:31;;;;;;;14.65;5.57;;;17.50;99.90;;;;;;5032709;28;20484;-81
2022/06/08 12:59:59;;;;;;;10.77;4.45;;;17.50;99.90;;;;;;5030103;28;20291;-81
2022/06/08 13:02:29;;;;;;;8.45;5.25;;;17.60;99.90;;;;;;5032016;28;20068;-81
2022/06/08 13:04:56;;;;;;;8.57;4.15;;;17.70;99.90;;;;;;5033671;28;20034;-81
2022/06/08 13:07:26;;;;;;;6.88;4.32;;;17.80;99.90;;;;;;5014874;28;20033;-81
2022/06/08 13:09:52;;;;;;;8.18;4.35;;;18.00;99.90;;;;;;5013532;28;20064;-81
2022/06/08 13:12:31;;;;;;;7.75;4.85;;;18.10;99.90;;;;;;5037360;28;20051;-81
2022/06/08 13:14:58;;;;;;;4.50;3.70;;;18.30;99.90;;;;;;5011130;28;20033;-81
2022/06/08 13:17:28;;;;;;;7.65;4.57;;;18.60;99.90;;;;;;5029846;28;20128;-81
2022/06/08 13:19:57;;;;;;;6.95;4.95;;;18.80;99.90;;;;;;5013887;28;20039;-81